Airport View

Enter ICAO identifier to see the current METAR for that AWOS.

KFNL for example

KCQM 241455Z AUTO 17003KT 10SM CLR 20/10 A3013 RMK AO2

24 Jul 2014 15:24

Frequency: 118.175

Phone: 218-666-2539

Other Area AWOS: KORB - KEVM - KHIB - KCDD

TAF KHIB 241132Z 2412/2512 VRB03KT P6SM SCT060 TEMPO 2412/2413 1SM BR SCT002 FM241700 21007KT P6SM SCT050 FM250300 14003KT P6SM SCT050 BKN090